Time;durP1;ratioP1;P1;durP2;ratioP2;P2;SDS_P1;SDS_P2;PMS_P1;PMS_P2;Temp;Humidity;BMP_temperature;BMP_pressure;BME280_temperature;BME280_humidity;BME280_pressure;Samples;Min_cycle;Max_cycle;Signal;HPM_P1;HPM_P2
2021/10/03 00:01:35;;;;;;;4.65;0.95;;;14.10;99.90;;;;;;5097965;28;20032;-80
2021/10/03 00:04:01;;;;;;;4.20;0.80;;;14.10;99.90;;;;;;5098160;28;20387;-81
2021/10/03 00:06:28;;;;;;;4.07;0.70;;;14.00;99.90;;;;;;5097958;28;20386;-81
2021/10/03 00:08:54;;;;;;;2.08;0.70;;;14.00;99.90;;;;;;5098091;28;20024;-80
2021/10/03 00:11:21;;;;;;;2.50;0.80;;;14.00;99.90;;;;;;5097979;28;20394;-80
2021/10/03 00:13:47;;;;;;;2.95;0.80;;;13.90;99.90;;;;;;5098078;28;20028;-81
2021/10/03 00:16:14;;;;;;;2.47;0.80;;;14.00;99.90;;;;;;5097544;28;20494;-81
2021/10/03 00:18:39;;;;;;;1.67;0.60;;;13.90;99.90;;;;;;5098289;28;20012;-81
2021/10/03 00:21:07;;;;;;;2.15;0.80;;;13.90;99.90;;;;;;5097222;28;20032;-80
2021/10/03 00:23:34;;;;;;;2.88;0.80;;;13.90;99.90;;;;;;5097769;28;20429;-83
2021/10/03 00:26:00;;;;;;;3.63;0.90;;;13.90;99.90;;;;;;5097637;28;20050;-84
2021/10/03 00:28:26;;;;;;;1.92;0.60;;;13.90;99.90;;;;;;5096516;28;20024;-81
2021/10/03 00:30:52;;;;;;;2.33;0.82;;;13.90;99.90;;;;;;5097438;28;20414;-80
2021/10/03 00:33:18;;;;;;;2.65;0.80;;;13.90;99.90;;;;;;5087843;28;20044;-80
2021/10/03 00:35:44;;;;;;;3.85;1.02;;;13.80;99.90;;;;;;5087914;28;20158;-80
2021/10/03 00:38:10;;;;;;;1.77;0.73;;;13.80;99.90;;;;;;5082549;28;20031;-83
2021/10/03 00:40:40;;;;;;;1.83;0.70;;;13.80;99.90;;;;;;5090445;28;20028;-82
2021/10/03 00:43:07;;;;;;;1.98;0.60;;;13.80;99.90;;;;;;5084887;28;20035;-81
2021/10/03 00:45:34;;;;;;;2.22;0.80;;;13.80;99.90;;;;;;5077323;28;20036;-80
2021/10/03 00:48:00;;;;;;;1.23;0.60;;;13.80;99.90;;;;;;5077199;28;20031;-80
2021/10/03 00:50:28;;;;;;;3.58;0.88;;;13.80;99.90;;;;;;5077359;28;20035;-80
2021/10/03 00:52:54;;;;;;;4.97;0.93;;;13.80;99.90;;;;;;5077292;28;20048;-80
2021/10/03 00:55:21;;;;;;;2.47;0.80;;;13.80;99.90;;;;;;5077121;28;20031;-79
2021/10/03 00:57:49;;;;;;;2.15;0.90;;;13.80;99.90;;;;;;5077264;28;20475;-80
2021/10/03 01:00:16;;;;;;;2.45;0.70;;;13.70;99.90;;;;;;5077281;28;20032;-80
2021/10/03 01:02:43;;;;;;;2.83;0.77;;;13.70;99.90;;;;;;5077024;28;20027;-80
2021/10/03 01:05:09;;;;;;;2.63;0.85;;;13.70;99.90;;;;;;5077163;28;20032;-80
2021/10/03 01:07:36;;;;;;;2.25;0.80;;;13.70;99.90;;;;;;5077449;28;20028;-79
2021/10/03 01:10:09;;;;;;;2.40;0.63;;;13.70;99.90;;;;;;5076937;28;20086;-79
2021/10/03 01:12:35;;;;;;;2.28;0.70;;;13.70;99.90;;;;;;5077569;28;20353;-79
2021/10/03 01:15:03;;;;;;;2.05;0.68;;;13.70;99.90;;;;;;5076903;28;20028;-79
2021/10/03 01:17:31;;;;;;;1.92;0.60;;;13.70;99.90;;;;;;5076971;28;20021;-79
2021/10/03 01:19:58;;;;;;;2.90;0.88;;;13.70;99.90;;;;;;5076953;28;20029;-79
2021/10/03 01:22:24;;;;;;;3.88;0.80;;;13.70;99.90;;;;;;5077127;28;20017;-79
2021/10/03 01:24:52;;;;;;;4.55;0.90;;;13.60;99.90;;;;;;5076762;28;20103;-79
2021/10/03 01:27:19;;;;;;;2.78;0.82;;;13.70;99.90;;;;;;5077094;28;20049;-79
2021/10/03 01:29:45;;;;;;;1.58;0.70;;;13.70;99.90;;;;;;5076841;28;20036;-79
2021/10/03 01:32:11;;;;;;;4.10;0.90;;;13.60;99.90;;;;;;5079705;28;20394;-79
2021/10/03 01:34:37;;;;;;;2.25;0.50;;;13.60;99.90;;;;;;5084771;28;20047;-79
2021/10/03 01:37:03;;;;;;;1.70;0.63;;;13.60;99.90;;;;;;5089915;28;20032;-79
2021/10/03 01:39:29;;;;;;;1.55;0.68;;;13.60;99.90;;;;;;5080405;28;20654;-80
2021/10/03 01:41:55;;;;;;;3.22;0.70;;;13.60;99.90;;;;;;5081603;28;20091;-80
2021/10/03 01:44:20;;;;;;;1.98;0.80;;;13.60;99.90;;;;;;5101141;28;20059;-80
2021/10/03 01:46:46;;;;;;;3.83;1.15;;;13.60;99.90;;;;;;5100579;28;20489;-79
2021/10/03 01:49:12;;;;;;;2.78;0.90;;;13.70;99.90;;;;;;5100837;28;20028;-79
2021/10/03 01:51:39;;;;;;;1.73;0.85;;;13.60;99.90;;;;;;5100729;28;20027;-79
2021/10/03 01:54:05;;;;;;;3.17;1.00;;;13.70;99.90;;;;;;5100446;28;20596;-80
2021/10/03 01:56:32;;;;;;;1.95;0.88;;;13.70;99.90;;;;;;5100750;28;20145;-80
2021/10/03 01:59:03;;;;;;;2.70;0.93;;;13.60;99.90;;;;;;5100777;28;20031;-80
2021/10/03 02:01:35;;;;;;;2.97;1.10;;;13.60;99.90;;;;;;5100141;28;20012;-79
2021/10/03 02:04:05;;;;;;;5.05;1.05;;;13.60;99.90;;;;;;5100435;28;20024;-79
2021/10/03 02:06:32;;;;;;;1.52;0.90;;;13.60;99.90;;;;;;5100558;28;20052;-79
2021/10/03 02:08:59;;;;;;;1.98;0.90;;;13.60;99.90;;;;;;5100328;28;20036;-80
2021/10/03 02:11:27;;;;;;;1.95;0.98;;;13.60;99.90;;;;;;5101018;28;20024;-79
2021/10/03 02:13:53;;;;;;;3.50;1.00;;;13.60;99.90;;;;;;5100465;28;20089;-80
2021/10/03 02:16:19;;;;;;;2.78;1.00;;;13.60;99.90;;;;;;5099889;28;20104;-79
2021/10/03 02:18:46;;;;;;;2.83;1.30;;;13.60;99.90;;;;;;5100293;28;20055;-79
2021/10/03 02:21:14;;;;;;;2.85;1.00;;;13.60;99.90;;;;;;5100263;28;20024;-80
2021/10/03 02:23:41;;;;;;;3.55;1.10;;;13.60;99.90;;;;;;5100062;28;20055;-79
2021/10/03 02:26:07;;;;;;;2.65;1.00;;;13.50;99.90;;;;;;5099159;28;20376;-80
2021/10/03 02:28:34;;;;;;;3.10;1.13;;;13.50;99.90;;;;;;5083502;28;20035;-83
2021/10/03 02:31:08;;;;;;;3.40;1.48;;;13.50;99.90;;;;;;5078442;28;20507;-81
2021/10/03 02:33:35;;;;;;;3.47;1.35;;;13.50;99.90;;;;;;5091294;28;20043;-80
2021/10/03 02:36:02;;;;;;;4.18;1.50;;;13.50;99.90;;;;;;5081928;28;20031;-81
2021/10/03 02:38:28;;;;;;;3.53;1.50;;;13.50;99.90;;;;;;5079773;28;20032;-80
2021/10/03 02:40:56;;;;;;;4.45;2.15;;;13.50;99.90;;;;;;5082415;28;20028;-80
2021/10/03 02:43:24;;;;;;;4.25;2.40;;;13.50;99.90;;;;;;5085568;28;20024;-80
2021/10/03 02:45:52;;;;;;;5.55;2.47;;;13.50;99.90;;;;;;5078775;28;20033;-81
2021/10/03 02:48:21;;;;;;;5.60;2.55;;;13.50;99.90;;;;;;5079594;28;20035;-80
2021/10/03 02:50:47;;;;;;;10.13;2.92;;;13.50;99.90;;;;;;5079253;28;20056;-81
2021/10/03 02:53:16;;;;;;;5.75;2.65;;;13.50;99.90;;;;;;5079223;28;20039;-81
2021/10/03 02:55:42;;;;;;;5.47;2.90;;;13.50;99.90;;;;;;5078895;28;20040;-80
2021/10/03 02:58:08;;;;;;;8.10;2.80;;;13.50;99.90;;;;;;5079350;28;20129;-80
2021/10/03 03:00:36;;;;;;;5.18;2.65;;;13.50;99.90;;;;;;5078768;28;20483;-80
2021/10/03 03:03:02;;;;;;;5.10;2.40;;;13.50;99.90;;;;;;5079023;28;20100;-80
2021/10/03 03:05:28;;;;;;;4.28;1.98;;;13.50;99.90;;;;;;5080211;28;20475;-81
2021/10/03 03:07:53;;;;;;;4.05;1.80;;;13.50;99.90;;;;;;5099338;28;20081;-80
2021/10/03 03:10:19;;;;;;;4.32;1.70;;;13.50;99.90;;;;;;5096936;28;20024;-80
2021/10/03 03:12:45;;;;;;;3.95;1.55;;;13.40;99.90;;;;;;5092413;28;20031;-80
2021/10/03 03:15:11;;;;;;;3.60;1.25;;;13.40;99.90;;;;;;5078686;28;20029;-80
2021/10/03 03:17:37;;;;;;;4.43;1.30;;;13.50;99.90;;;;;;5078467;28;20020;-80
2021/10/03 03:20:06;;;;;;;2.90;1.30;;;13.50;99.90;;;;;;5078777;28;20028;-80
2021/10/03 03:22:31;;;;;;;3.83;1.50;;;13.40;99.90;;;;;;5078639;28;20048;-79
2021/10/03 03:24:57;;;;;;;2.80;1.30;;;13.40;99.90;;;;;;5076880;28;20035;-80
2021/10/03 03:27:23;;;;;;;2.30;1.00;;;13.40;99.90;;;;;;5078545;28;20079;-80
2021/10/03 03:29:49;;;;;;;3.05;1.20;;;13.40;99.90;;;;;;5078461;28;20103;-80
2021/10/03 03:32:15;;;;;;;2.97;1.33;;;13.40;99.90;;;;;;5081753;28;20535;-80
2021/10/03 03:34:41;;;;;;;4.53;1.30;;;13.40;99.90;;;;;;5080971;28;20411;-80
2021/10/03 03:37:07;;;;;;;4.38;1.65;;;13.40;99.90;;;;;;5078466;28;20020;-80
2021/10/03 03:39:33;;;;;;;2.70;1.15;;;13.30;99.90;;;;;;5079319;28;20110;-80
2021/10/03 03:42:00;;;;;;;2.53;1.20;;;13.30;99.90;;;;;;5089849;28;20020;-81
2021/10/03 03:44:25;;;;;;;3.15;1.10;;;13.40;99.90;;;;;;5087754;28;20031;-79
2021/10/03 03:46:51;;;;;;;3.35;1.27;;;13.40;99.90;;;;;;5077429;28;20025;-80
2021/10/03 03:49:17;;;;;;;3.20;1.10;;;13.30;99.90;;;;;;5094256;28;20082;-79
2021/10/03 03:51:43;;;;;;;3.50;1.10;;;13.30;99.90;;;;;;5093490;28;20053;-79
2021/10/03 03:54:09;;;;;;;3.45;1.00;;;13.30;99.90;;;;;;5095468;28;20526;-79
2021/10/03 03:56:35;;;;;;;2.70;0.90;;;13.30;99.90;;;;;;5094792;28;20673;-79
2021/10/03 03:59:01;;;;;;;3.42;0.80;;;13.30;99.90;;;;;;5094567;28;20017;-80
2021/10/03 04:01:27;;;;;;;3.85;1.30;;;13.30;99.90;;;;;;5088374;28;20024;-80
2021/10/03 04:03:53;;;;;;;3.45;0.90;;;13.30;99.90;;;;;;5092866;28;20032;-80
2021/10/03 04:06:19;;;;;;;2.75;0.90;;;13.30;99.90;;;;;;5098074;28;20023;-80
2021/10/03 04:08:45;;;;;;;3.17;0.90;;;13.20;99.90;;;;;;5098018;28;20028;-80
2021/10/03 04:11:13;;;;;;;3.85;0.90;;;13.20;99.90;;;;;;5081122;28;20173;-80
2021/10/03 04:13:39;;;;;;;3.72;1.13;;;13.20;99.90;;;;;;5096189;28;20024;-80
2021/10/03 04:16:05;;;;;;;4.28;1.05;;;13.20;99.90;;;;;;5086498;28;20032;-80
2021/10/03 04:18:31;;;;;;;2.42;1.05;;;13.20;99.90;;;;;;5076314;28;20025;-80
2021/10/03 04:20:57;;;;;;;4.95;1.10;;;13.20;99.90;;;;;;5077842;28;20021;-80
2021/10/03 04:23:23;;;;;;;4.00;0.93;;;13.10;99.90;;;;;;5090687;28;20494;-80
2021/10/03 04:25:48;;;;;;;2.28;0.95;;;13.20;99.90;;;;;;5097145;28;20038;-80
2021/10/03 04:28:15;;;;;;;2.38;0.90;;;13.10;99.90;;;;;;5097565;28;20552;-80
2021/10/03 04:30:40;;;;;;;4.60;1.13;;;13.10;99.90;;;;;;5084678;28;20398;-80
2021/10/03 04:33:06;;;;;;;5.05;1.10;;;13.10;99.90;;;;;;5084629;28;21150;-80
2021/10/03 04:35:32;;;;;;;3.15;1.10;;;13.10;99.90;;;;;;5093108;28;20031;-79
2021/10/03 04:37:58;;;;;;;3.40;1.27;;;13.10;99.90;;;;;;5097664;28;20024;-79
2021/10/03 04:40:24;;;;;;;2.83;1.17;;;13.10;99.90;;;;;;5084733;28;20078;-79
2021/10/03 04:42:49;;;;;;;2.63;1.10;;;13.10;99.90;;;;;;5080416;28;20021;-79
2021/10/03 04:45:16;;;;;;;3.30;1.20;;;13.10;99.90;;;;;;5077190;28;20029;-79
2021/10/03 04:47:43;;;;;;;2.10;1.00;;;13.10;99.90;;;;;;5077378;28;20082;-79
2021/10/03 04:50:10;;;;;;;3.53;1.10;;;13.10;99.90;;;;;;5077364;28;20020;-80
2021/10/03 04:52:35;;;;;;;3.80;1.40;;;13.10;99.90;;;;;;5097463;28;20032;-80
2021/10/03 04:55:02;;;;;;;3.75;1.23;;;13.10;99.90;;;;;;5089777;28;20024;-80
2021/10/03 04:57:27;;;;;;;4.00;1.02;;;13.10;99.90;;;;;;5080580;28;20033;-80
2021/10/03 04:59:53;;;;;;;5.63;1.10;;;13.10;99.90;;;;;;5088545;28;20029;-80
2021/10/03 05:02:19;;;;;;;3.72;1.35;;;13.10;99.90;;;;;;5092624;28;20067;-80
2021/10/03 05:04:45;;;;;;;3.13;1.60;;;13.10;99.90;;;;;;5077349;28;20460;-80
2021/10/03 05:07:10;;;;;;;3.80;1.58;;;13.10;99.90;;;;;;5078258;28;20395;-80
2021/10/03 05:09:36;;;;;;;2.25;0.90;;;13.10;99.90;;;;;;5084864;28;20435;-81
2021/10/03 05:12:02;;;;;;;2.97;1.00;;;13.10;99.90;;;;;;5100098;28;20097;-81
2021/10/03 05:14:28;;;;;;;4.80;1.38;;;13.10;99.90;;;;;;5101220;28;20504;-80
2021/10/03 05:16:54;;;;;;;2.90;1.00;;;13.00;99.90;;;;;;5089627;28;20103;-80
2021/10/03 05:19:20;;;;;;;2.13;0.80;;;13.00;99.90;;;;;;5081172;28;20016;-80
2021/10/03 05:21:46;;;;;;;2.35;0.75;;;13.00;99.90;;;;;;5085533;28;20024;-80
2021/10/03 05:24:11;;;;;;;3.00;0.80;;;13.00;99.90;;;;;;5082613;28;20484;-81
2021/10/03 05:26:37;;;;;;;2.65;0.90;;;12.90;99.90;;;;;;5086661;28;20021;-81
2021/10/03 05:29:03;;;;;;;2.22;0.73;;;12.90;99.90;;;;;;5095702;28;20027;-80
2021/10/03 05:31:29;;;;;;;4.32;1.60;;;12.90;99.90;;;;;;5100938;28;20032;-81
2021/10/03 05:33:55;;;;;;;2.13;0.70;;;12.90;99.90;;;;;;5095739;28;20432;-80
2021/10/03 05:36:21;;;;;;;2.60;0.90;;;12.80;99.90;;;;;;5094442;28;20372;-81
2021/10/03 05:38:47;;;;;;;1.98;0.80;;;12.80;99.90;;;;;;5080597;28;20047;-81
2021/10/03 05:41:13;;;;;;;4.70;1.33;;;12.80;99.90;;;;;;5080722;28;20032;-80
2021/10/03 05:43:39;;;;;;;3.17;0.82;;;12.80;99.90;;;;;;5091737;28;20096;-80
2021/10/03 05:46:05;;;;;;;3.63;0.80;;;12.80;99.90;;;;;;5083858;28;20032;-81
2021/10/03 05:48:32;;;;;;;2.85;0.80;;;12.70;99.90;;;;;;5081608;28;20056;-81
2021/10/03 05:50:58;;;;;;;3.40;0.90;;;12.70;99.90;;;;;;5084430;28;20032;-80
2021/10/03 05:53:24;;;;;;;2.67;0.90;;;12.70;99.90;;;;;;5084578;28;20048;-80
2021/10/03 05:55:50;;;;;;;2.88;0.90;;;12.70;99.90;;;;;;5096228;28;20024;-80
2021/10/03 05:58:16;;;;;;;1.60;0.70;;;12.60;99.90;;;;;;5098574;28;20063;-80
2021/10/03 06:00:42;;;;;;;3.78;0.80;;;12.60;99.90;;;;;;5099869;28;20027;-80
2021/10/03 06:03:07;;;;;;;3.95;0.95;;;12.50;99.90;;;;;;5098896;28;20028;-80
2021/10/03 06:05:33;;;;;;;2.45;0.93;;;12.50;99.90;;;;;;5094103;28;20035;-80
2021/10/03 06:07:59;;;;;;;2.45;0.80;;;12.50;99.90;;;;;;5100610;28;20494;-80
2021/10/03 06:10:25;;;;;;;2.58;0.80;;;12.40;99.90;;;;;;5098601;28;20505;-80
2021/10/03 06:12:52;;;;;;;3.97;0.88;;;12.40;99.90;;;;;;5100400;28;20024;-80
2021/10/03 06:15:18;;;;;;;2.38;0.88;;;12.40;99.90;;;;;;5099475;28;20023;-80
2021/10/03 06:17:44;;;;;;;4.68;0.90;;;12.30;99.90;;;;;;5093564;28;20020;-80
2021/10/03 06:20:11;;;;;;;2.70;0.80;;;12.30;99.90;;;;;;5079221;28;20054;-80
2021/10/03 06:22:40;;;;;;;3.67;1.00;;;12.30;99.90;;;;;;5089567;28;20032;-80
2021/10/03 06:25:07;;;;;;;3.30;0.90;;;12.30;99.90;;;;;;5087032;28;20538;-80
2021/10/03 06:27:33;;;;;;;4.07;0.80;;;12.30;99.90;;;;;;5096759;28;20092;-80
2021/10/03 06:29:59;;;;;;;11.68;1.10;;;12.20;99.90;;;;;;5099877;28;20465;-80
2021/10/03 06:32:24;;;;;;;1.35;0.70;;;12.20;99.90;;;;;;5099025;28;20064;-80
2021/10/03 06:34:51;;;;;;;2.90;0.75;;;12.20;99.90;;;;;;5080207;28;20076;-81
2021/10/03 06:37:17;;;;;;;1.30;0.70;;;12.10;99.90;;;;;;5079527;28;20458;-81
2021/10/03 06:39:43;;;;;;;3.42;0.90;;;12.20;99.90;;;;;;5086493;28;20066;-80
2021/10/03 06:42:09;;;;;;;5.53;1.55;;;12.10;99.90;;;;;;5082408;28;20021;-80
2021/10/03 06:44:35;;;;;;;5.18;1.05;;;12.10;99.90;;;;;;5079473;28;20017;-80
2021/10/03 06:47:02;;;;;;;3.53;0.90;;;12.10;99.90;;;;;;5089268;28;20025;-80
2021/10/03 06:49:28;;;;;;;3.40;0.80;;;12.20;99.90;;;;;;5079680;28;20028;-79
2021/10/03 06:51:54;;;;;;;3.42;0.85;;;12.10;99.90;;;;;;5079575;28;20036;-80
2021/10/03 06:54:20;;;;;;;4.20;0.93;;;12.10;99.90;;;;;;5079222;28;20024;-81
2021/10/03 06:56:46;;;;;;;2.88;0.70;;;12.10;99.90;;;;;;5079367;28;20487;-80
2021/10/03 06:59:12;;;;;;;3.83;1.00;;;12.10;99.90;;;;;;5079093;28;20042;-81
2021/10/03 07:01:37;;;;;;;2.72;0.73;;;12.10;99.90;;;;;;5078383;28;20403;-80
2021/10/03 07:04:03;;;;;;;2.83;0.80;;;12.10;99.90;;;;;;5079074;28;20073;-79
2021/10/03 07:06:29;;;;;;;3.58;1.05;;;12.10;99.90;;;;;;5079068;28;20036;-78
2021/10/03 07:08:55;;;;;;;5.63;1.40;;;12.10;99.90;;;;;;5078678;28;20024;-80
2021/10/03 07:11:21;;;;;;;5.85;1.90;;;12.10;99.90;;;;;;5090693;28;20428;-81
2021/10/03 07:13:47;;;;;;;5.90;2.30;;;12.00;99.90;;;;;;5098729;28;20028;-80
2021/10/03 07:16:12;;;;;;;4.05;1.42;;;12.10;99.90;;;;;;5091649;28;20478;-82
2021/10/03 07:18:38;;;;;;;4.28;1.40;;;12.00;99.90;;;;;;5098999;28;20051;-80
2021/10/03 07:21:04;;;;;;;3.85;1.08;;;12.10;99.90;;;;;;5088631;28;20024;-75
2021/10/03 07:23:32;;;;;;;2.75;1.00;;;12.10;99.90;;;;;;5098792;28;20028;-80
2021/10/03 07:25:58;;;;;;;3.67;0.90;;;12.10;99.90;;;;;;5098779;28;20020;-83
2021/10/03 07:28:24;;;;;;;5.60;1.35;;;12.10;99.90;;;;;;5092026;28;20036;-80
2021/10/03 07:30:51;;;;;;;4.72;1.50;;;12.10;99.90;;;;;;5077048;28;20066;-74
2021/10/03 07:33:18;;;;;;;3.83;1.10;;;12.10;99.90;;;;;;5089739;28;20376;-74
2021/10/03 07:35:45;;;;;;;3.88;1.15;;;12.10;99.90;;;;;;5091333;28;20028;-74
2021/10/03 07:38:11;;;;;;;5.20;1.30;;;12.10;99.90;;;;;;5077285;28;20422;-75
2021/10/03 07:40:37;;;;;;;2.53;1.00;;;12.10;99.90;;;;;;5080342;28;20023;-74
2021/10/03 07:43:03;;;;;;;3.55;1.13;;;12.10;99.90;;;;;;5088542;28;20023;-74
2021/10/03 07:45:29;;;;;;;3.72;1.00;;;12.20;99.90;;;;;;5097891;28;20874;-76
2021/10/03 07:47:55;;;;;;;4.00;1.00;;;12.30;99.90;;;;;;5087158;28;20471;-76
2021/10/03 07:50:22;;;;;;;3.25;0.80;;;12.30;99.90;;;;;;5077865;28;20020;-75
2021/10/03 07:52:48;;;;;;;2.47;0.90;;;12.50;99.90;;;;;;5078020;28;20032;-74
2021/10/03 07:55:13;;;;;;;3.45;0.88;;;12.60;99.90;;;;;;5078991;28;20028;-76
2021/10/03 07:57:40;;;;;;;3.60;1.10;;;12.70;99.90;;;;;;5082066;28;20060;-80
2021/10/03 08:00:07;;;;;;;5.30;1.27;;;12.80;99.90;;;;;;5077056;28;20560;-78
2021/10/03 08:02:32;;;;;;;4.28;1.20;;;12.90;99.90;;;;;;5094056;28;20055;-79
2021/10/03 08:04:58;;;;;;;5.10;1.83;;;13.00;99.90;;;;;;5097172;28;20039;-76
2021/10/03 08:07:24;;;;;;;14.18;8.85;;;13.10;99.90;;;;;;5078091;28;20032;-78
2021/10/03 08:09:50;;;;;;;16.92;12.00;;;13.20;99.90;;;;;;5091365;28;20059;-75
2021/10/03 08:12:16;;;;;;;6.53;1.77;;;13.20;99.90;;;;;;5094701;28;20027;-79
2021/10/03 08:14:42;;;;;;;5.93;1.40;;;13.30;99.90;;;;;;5097617;28;20024;-79
2021/10/03 08:17:08;;;;;;;3.22;1.10;;;13.30;99.90;;;;;;5082170;28;20035;-77
2021/10/03 08:19:34;;;;;;;7.20;1.42;;;13.30;99.90;;;;;;5077566;28;20122;-80
2021/10/03 08:22:00;;;;;;;4.07;1.25;;;13.30;99.90;;;;;;5090498;28;20387;-77
2021/10/03 08:24:26;;;;;;;2.90;1.30;;;13.30;99.90;;;;;;5090875;28;20024;-84
2021/10/03 08:26:52;;;;;;;3.78;1.25;;;13.20;99.90;;;;;;5096710;28;20059;-80
2021/10/03 08:29:19;;;;;;;2.35;1.10;;;13.30;99.90;;;;;;5096417;28;20050;-79
2021/10/03 08:31:45;;;;;;;5.25;1.10;;;13.30;99.90;;;;;;5093869;28;20135;-82
2021/10/03 08:34:11;;;;;;;3.13;1.00;;;13.50;99.90;;;;;;5091681;28;20067;-78
2021/10/03 08:36:36;;;;;;;2.22;1.05;;;13.90;99.90;;;;;;5095469;28;20386;-80
2021/10/03 08:39:03;;;;;;;3.90;1.23;;;14.70;99.90;;;;;;5097443;28;20020;-80
2021/10/03 08:41:29;;;;;;;3.50;1.10;;;15.80;99.90;;;;;;5083312;28;20056;-82
2021/10/03 08:43:55;;;;;;;3.88;1.00;;;16.70;99.90;;;;;;5088711;28;20502;-75
2021/10/03 08:46:25;;;;;;;3.95;1.50;;;17.50;99.90;;;;;;5095226;28;20163;-76
2021/10/03 08:48:53;;;;;;;3.90;1.55;;;17.90;99.90;;;;;;5089863;28;20027;-75
2021/10/03 08:51:19;;;;;;;6.45;3.80;;;18.00;99.90;;;;;;5085859;28;20114;-76
2021/10/03 08:53:44;;;;;;;15.77;9.38;;;18.00;99.90;;;;;;5077076;28;20028;-76
2021/10/03 08:56:10;;;;;;;12.48;6.88;;;18.20;99.90;;;;;;5080876;28;20111;-74
2021/10/03 08:58:36;;;;;;;6.95;1.92;;;18.40;99.90;;;;;;5087399;28;20020;-82
2021/10/03 09:01:02;;;;;;;3.15;0.80;;;18.50;99.90;;;;;;5078972;28;20025;-79
2021/10/03 09:03:28;;;;;;;4.55;0.95;;;19.00;99.90;;;;;;5094364;28;20091;-79
2021/10/03 09:05:57;;;;;;;2.63;1.63;;;19.30;99.90;;;;;;5094544;28;20032;-81
2021/10/03 09:08:25;;;;;;;2.42;0.90;;;19.80;99.90;;;;;;5091854;28;20021;-81
2021/10/03 09:10:59;;;;;;;6.55;1.08;;;20.30;99.90;;;;;;5077358;28;20024;-81
2021/10/03 09:13:31;;;;;;;5.10;1.00;;;20.50;99.90;;;;;;5078921;28;20080;-78
2021/10/03 09:16:06;;;;;;;3.80;1.02;;;20.50;99.90;;;;;;5076692;28;20035;-77
2021/10/03 09:18:43;;;;;;;3.67;1.20;;;20.60;99.90;;;;;;5076898;28;20040;-77
2021/10/03 09:21:12;;;;;;;5.07;1.00;;;20.80;99.90;;;;;;5077109;28;20448;-79
2021/10/03 09:23:38;;;;;;;4.78;1.25;;;21.10;98.60;;;;;;5076929;28;20025;-80
2021/10/03 09:26:11;;;;;;;6.53;2.30;;;21.60;99.60;;;;;;5080976;28;20059;-81
2021/10/03 09:28:37;;;;;;;8.07;3.90;;;21.90;95.70;;;;;;5083923;28;20511;-79
2021/10/03 09:31:06;;;;;;;6.43;1.67;;;22.00;99.20;;;;;;5080861;28;20098;-76
2021/10/03 09:33:46;;;;;;;2.55;0.77;;;22.20;98.90;;;;;;5083360;28;20060;-81
2021/10/03 09:36:20;;;;;;;4.47;0.98;;;22.50;99.50;;;;;;5082661;28;20116;-75
2021/10/03 09:39:11;;;;;;;2.55;0.90;;;22.80;97.50;;;;;;5076800;28;20099;-80
2021/10/03 09:41:39;;;;;;;3.80;0.90;;;23.00;99.10;;;;;;5088299;28;20036;-78
2021/10/03 09:44:14;;;;;;;3.65;0.90;;;23.20;99.50;;;;;;5082379;28;20379;-79
2021/10/03 09:46:43;;;;;;;2.80;0.70;;;23.40;91.60;;;;;;5082100;28;20051;-75
2021/10/03 09:49:22;;;;;;;3.90;0.80;;;23.80;94.10;;;;;;5093516;28;20035;-72
2021/10/03 09:51:49;;;;;;;5.97;1.00;;;23.90;92.60;;;;;;5084222;28;20032;-74
2021/10/03 09:54:17;;;;;;;7.07;3.67;;;24.00;92.50;;;;;;5080231;28;20020;-79
2021/10/03 09:56:44;;;;;;;8.43;2.30;;;24.20;93.20;;;;;;5097213;28;20123;-79
2021/10/03 09:59:10;;;;;;;6.53;2.00;;;24.40;89.30;;;;;;5098977;28;20055;-79
2021/10/03 10:01:38;;;;;;;4.93;1.30;;;24.50;89.70;;;;;;5079304;28;20021;-79
2021/10/03 10:04:10;;;;;;;3.33;0.80;;;24.40;85.70;;;;;;5083339;28;20016;-81
2021/10/03 10:06:36;;;;;;;3.60;0.90;;;24.40;85.50;;;;;;5098085;28;20028;-78
2021/10/03 10:09:08;;;;;;;4.85;1.40;;;24.50;84.50;;;;;;5099608;28;20088;-79
2021/10/03 10:11:51;;;;;;;4.32;1.10;;;24.70;85.50;;;;;;5097160;28;20027;-77
2021/10/03 10:14:26;;;;;;;2.45;0.60;;;24.90;82.60;;;;;;5085833;28;20060;-78
2021/10/03 10:16:56;;;;;;;4.80;0.80;;;25.10;76.00;;;;;;5083412;28;20063;-78
2021/10/03 10:19:35;;;;;;;4.30;0.70;;;25.20;77.50;;;;;;5079877;28;20017;-75
2021/10/03 10:22:18;;;;;;;5.78;0.90;;;25.30;79.30;;;;;;5078169;28;20479;-76
2021/10/03 10:24:45;;;;;;;2.28;0.60;;;25.50;67.50;;;;;;5078376;28;20016;-76
2021/10/03 10:27:29;;;;;;;6.90;1.10;;;25.60;64.40;;;;;;5078498;28;20098;-75
2021/10/03 10:29:58;;;;;;;4.45;0.80;;;25.70;68.40;;;;;;5078793;28;20032;-75
2021/10/03 10:32:26;;;;;;;3.00;0.70;;;25.70;54.80;;;;;;5085741;28;20107;-74
2021/10/03 10:35:07;;;;;;;3.03;0.90;;;25.80;55.30;;;;;;5086764;28;20036;-75
2021/10/03 10:37:57;;;;;;;3.85;1.00;;;26.00;61.10;;;;;;5079786;28;20070;-74
2021/10/03 10:40:23;;;;;;;3.65;0.82;;;26.10;61.30;;;;;;5087847;28;20024;-75
2021/10/03 10:43:19;;;;;;;4.22;0.85;;;26.40;58.20;;;;;;5094894;28;20027;-75
2021/10/03 10:45:46;;;;;;;3.35;1.13;;;26.40;56.00;;;;;;5079084;28;20016;-75
2021/10/03 10:48:20;;;;;;;2.97;0.60;;;26.40;54.40;;;;;;5079278;28;20035;-74
2021/10/03 10:50:49;;;;;;;2.97;1.08;;;26.40;57.20;;;;;;5078121;28;20035;-75
2021/10/03 10:53:31;;;;;;;3.20;0.93;;;26.40;55.10;;;;;;5086355;28;20024;-76
2021/10/03 10:56:08;;;;;;;4.90;0.82;;;26.20;51.90;;;;;;5099392;28;20024;-75
2021/10/03 10:58:37;;;;;;;4.30;0.73;;;25.90;55.10;;;;;;5099497;28;20020;-75
2021/10/03 11:01:12;;;;;;;4.43;1.02;;;26.00;55.90;;;;;;5097807;28;20020;-75
2021/10/03 11:03:44;;;;;;;5.40;0.80;;;26.10;58.80;;;;;;5099288;28;20019;-75
2021/10/03 11:06:12;;;;;;;4.65;0.90;;;26.30;55.20;;;;;;5097631;28;20046;-76
2021/10/03 11:08:56;;;;;;;5.65;1.27;;;26.00;48.40;;;;;;5099091;28;20138;-76
2021/10/03 11:11:23;;;;;;;4.25;0.80;;;26.20;54.00;;;;;;5097986;28;20020;-76
2021/10/03 11:13:55;;;;;;;3.92;0.65;;;25.90;51.40;;;;;;5099131;28;20036;-76
2021/10/03 11:16:27;;;;;;;6.55;1.08;;;25.90;54.10;;;;;;5095956;28;20043;-73
2021/10/03 11:19:02;;;;;;;3.30;0.87;;;26.00;55.00;;;;;;5099303;28;20115;-72
2021/10/03 11:21:34;;;;;;;3.13;0.77;;;26.10;55.20;;;;;;5099107;28;20620;-72
2021/10/03 11:24:04;;;;;;;4.18;0.85;;;26.20;54.00;;;;;;5098996;28;20024;-75
2021/10/03 11:26:48;;;;;;;5.45;0.80;;;26.20;54.50;;;;;;5098822;28;20093;-75
2021/10/03 11:29:14;;;;;;;5.68;0.70;;;26.20;55.30;;;;;;5098812;28;20024;-76
2021/10/03 11:31:47;;;;;;;4.35;0.82;;;26.20;54.20;;;;;;5098746;28;20028;-76
2021/10/03 11:34:41;;;;;;;2.85;0.90;;;26.30;54.90;;;;;;5084096;28;20055;-76
2021/10/03 11:37:35;;;;;;;4.28;1.00;;;26.40;55.30;;;;;;5086318;28;20028;-76
2021/10/03 11:40:11;;;;;;;3.17;0.77;;;26.50;54.90;;;;;;5087878;28;20035;-75
2021/10/03 11:42:44;;;;;;;9.32;1.27;;;26.50;54.10;;;;;;5098473;28;20027;-75
2021/10/03 11:45:17;;;;;;;5.43;0.90;;;26.30;51.90;;;;;;5085055;28;20028;-71
2021/10/03 11:47:47;;;;;;;4.95;1.20;;;26.30;54.80;;;;;;5095749;28;20024;-71
2021/10/03 11:50:17;;;;;;;4.38;0.88;;;26.20;54.10;;;;;;5088565;28;20064;-72
2021/10/03 11:52:44;;;;;;;5.97;0.70;;;26.20;54.60;;;;;;5096736;28;20020;-72
2021/10/03 11:55:20;;;;;;;4.63;0.60;;;26.00;54.10;;;;;;5093133;28;20036;-72
2021/10/03 11:57:48;;;;;;;3.88;0.90;;;25.80;49.90;;;;;;5080447;28;20395;-73
2021/10/03 12:00:16;;;;;;;2.60;0.68;;;25.70;49.90;;;;;;5083613;28;20033;-70
2021/10/03 12:02:47;;;;;;;3.80;0.60;;;25.40;50.30;;;;;;5091307;28;20016;-73
2021/10/03 12:05:18;;;;;;;6.60;0.70;;;25.40;53.50;;;;;;5092743;28;20025;-70
2021/10/03 12:07:44;;;;;;;5.88;0.80;;;25.40;54.10;;;;;;5083705;28;20506;-71
2021/10/03 12:10:12;;;;;;;3.08;0.57;;;25.30;51.20;;;;;;5079036;28;20102;-71
2021/10/03 12:12:50;;;;;;;3.72;0.65;;;25.30;54.40;;;;;;5081210;28;20024;-71
2021/10/03 12:15:44;;;;;;;5.07;0.90;;;25.20;54.10;;;;;;5085635;28;20054;-86
2021/10/03 12:18:32;;;;;;;3.25;0.60;;;25.00;54.90;;;;;;5088298;28;20028;-82
2021/10/03 12:21:07;;;;;;;5.85;1.25;;;24.60;52.30;;;;;;5077865;28;20394;-82
2021/10/03 12:23:41;;;;;;;2.53;0.70;;;24.40;50.30;;;;;;5081074;28;20438;-83
2021/10/03 12:26:12;;;;;;;4.35;0.68;;;24.20;53.70;;;;;;5080106;28;20407;-83
2021/10/03 12:29:01;;;;;;;7.22;0.70;;;24.00;49.90;;;;;;5076245;28;20063;-81
2021/10/03 12:32:05;;;;;;;5.63;1.00;;;24.00;51.40;;;;;;5081302;28;20134;-83
2021/10/03 12:34:34;;;;;;;3.97;0.68;;;24.20;51.10;;;;;;5094728;28;20072;-81
2021/10/03 12:37:04;;;;;;;5.47;0.80;;;24.30;51.00;;;;;;5093893;28;20027;-84
2021/10/03 12:39:34;;;;;;;2.38;0.68;;;24.30;52.90;;;;;;5093593;28;20043;-78
2021/10/03 12:42:09;;;;;;;4.57;0.90;;;24.40;52.80;;;;;;5077615;28;20055;-79
2021/10/03 12:44:36;;;;;;;4.10;0.80;;;24.30;52.10;;;;;;5081198;28;20031;-80
2021/10/03 12:47:06;;;;;;;3.50;0.70;;;24.40;54.00;;;;;;5084951;28;20486;-79
2021/10/03 12:49:32;;;;;;;4.45;0.75;;;24.20;51.10;;;;;;5085578;28;20024;-78
2021/10/03 12:51:59;;;;;;;2.88;0.80;;;23.80;50.00;;;;;;5081672;28;20085;-76